sensor_id;sensor_type;location;lat;lon;timestamp;temperature;humidity
3602;DHT22;1815;50.950;6.920;2022-12-11T00:00:48;4.30;99.90
3602;DHT22;1815;50.950;6.920;2022-12-11T00:03:18;4.30;99.90
3602;DHT22;1815;50.950;6.920;2022-12-11T00:05:44;4.30;99.90
3602;DHT22;1815;50.950;6.920;2022-12-11T00:08:10;4.30;99.90
3602;DHT22;1815;50.950;6.920;2022-12-11T00:10:36;4.30;99.90
3602;DHT22;1815;50.950;6.920;2022-12-11T00:13:03;4.30;99.90
3602;DHT22;1815;50.950;6.920;2022-12-11T00:15:28;4.30;99.90
3602;DHT22;1815;50.950;6.920;2022-12-11T00:17:54;4.30;99.90
3602;DHT22;1815;50.950;6.920;2022-12-11T00:20:20;4.30;99.90
3602;DHT22;1815;50.950;6.920;2022-12-11T00:22:46;4.30;99.90
3602;DHT22;1815;50.950;6.920;2022-12-11T00:25:12;4.30;99.90
3602;DHT22;1815;50.950;6.920;2022-12-11T00:27:38;4.30;99.90
3602;DHT22;1815;50.950;6.920;2022-12-11T00:30:04;4.30;99.90
3602;DHT22;1815;50.950;6.920;2022-12-11T00:32:30;4.30;99.90
3602;DHT22;1815;50.950;6.920;2022-12-11T00:34:56;4.30;99.90
3602;DHT22;1815;50.950;6.920;2022-12-11T00:37:22;4.40;99.90
3602;DHT22;1815;50.950;6.920;2022-12-11T00:39:48;4.40;99.90
3602;DHT22;1815;50.950;6.920;2022-12-11T00:42:14;4.40;99.90
3602;DHT22;1815;50.950;6.920;2022-12-11T00:44:39;4.40;99.90
3602;DHT22;1815;50.950;6.920;2022-12-11T00:47:06;4.40;99.90
3602;DHT22;1815;50.950;6.920;2022-12-11T00:49:33;4.40;99.90
3602;DHT22;1815;50.950;6.920;2022-12-11T00:51:58;4.40;99.90
3602;DHT22;1815;50.950;6.920;2022-12-11T00:54:24;4.40;99.90
3602;DHT22;1815;50.950;6.920;2022-12-11T00:56:50;4.40;99.90
3602;DHT22;1815;50.950;6.920;2022-12-11T00:59:16;4.40;99.90
3602;DHT22;1815;50.950;6.920;2022-12-11T01:01:44;4.40;99.90
3602;DHT22;1815;50.950;6.920;2022-12-11T01:04:09;4.40;99.90
3602;DHT22;1815;50.950;6.920;2022-12-11T01:06:35;4.40;99.90
3602;DHT22;1815;50.950;6.920;2022-12-11T01:09:01;4.40;99.90
3602;DHT22;1815;50.950;6.920;2022-12-11T01:11:45;4.40;99.90
3602;DHT22;1815;50.950;6.920;2022-12-11T01:14:11;4.40;99.90
3602;DHT22;1815;50.950;6.920;2022-12-11T01:16:37;4.40;99.90
3602;DHT22;1815;50.950;6.920;2022-12-11T01:19:03;4.40;99.90
3602;DHT22;1815;50.950;6.920;2022-12-11T01:21:29;4.40;99.90
3602;DHT22;1815;50.950;6.920;2022-12-11T01:23:55;4.40;99.90
3602;DHT22;1815;50.950;6.920;2022-12-11T01:26:21;4.30;99.90
3602;DHT22;1815;50.950;6.920;2022-12-11T01:28:49;4.30;99.90
3602;DHT22;1815;50.950;6.920;2022-12-11T01:31:16;4.30;99.90
3602;DHT22;1815;50.950;6.920;2022-12-11T01:33:42;4.30;99.90
3602;DHT22;1815;50.950;6.920;2022-12-11T01:36:10;4.30;99.90
3602;DHT22;1815;50.950;6.920;2022-12-11T01:38:36;4.30;99.90
3602;DHT22;1815;50.950;6.920;2022-12-11T01:41:02;4.30;99.90
3602;DHT22;1815;50.950;6.920;2022-12-11T01:43:28;4.30;99.90
3602;DHT22;1815;50.950;6.920;2022-12-11T01:45:54;4.30;99.90
3602;DHT22;1815;50.950;6.920;2022-12-11T01:48:26;4.30;99.90
3602;DHT22;1815;50.950;6.920;2022-12-11T01:50:56;4.30;99.90
3602;DHT22;1815;50.950;6.920;2022-12-11T01:53:30;4.30;99.90
3602;DHT22;1815;50.950;6.920;2022-12-11T01:56:00;4.20;99.90
3602;DHT22;1815;50.950;6.920;2022-12-11T01:58:31;4.20;99.90
3602;DHT22;1815;50.950;6.920;2022-12-11T02:00:59;4.20;99.90
3602;DHT22;1815;50.950;6.920;2022-12-11T02:03:27;4.20;99.90
3602;DHT22;1815;50.950;6.920;2022-12-11T02:06:02;4.20;99.90
3602;DHT22;1815;50.950;6.920;2022-12-11T02:08:28;4.20;99.90
3602;DHT22;1815;50.950;6.920;2022-12-11T02:18:43;4.20;99.90
3602;DHT22;1815;50.950;6.920;2022-12-11T02:27:35;4.20;99.90
3602;DHT22;1815;50.950;6.920;2022-12-11T02:30:07;4.20;99.90
3602;DHT22;1815;50.950;6.920;2022-12-11T02:32:38;4.20;99.90
3602;DHT22;1815;50.950;6.920;2022-12-11T02:35:22;4.20;99.90
3602;DHT22;1815;50.950;6.920;2022-12-11T02:37:56;4.20;99.90
3602;DHT22;1815;50.950;6.920;2022-12-11T02:40:28;4.20;99.90
3602;DHT22;1815;50.950;6.920;2022-12-11T02:42:57;4.20;99.90
3602;DHT22;1815;50.950;6.920;2022-12-11T02:45:25;4.20;99.90
3602;DHT22;1815;50.950;6.920;2022-12-11T02:47:52;4.20;99.90
3602;DHT22;1815;50.950;6.920;2022-12-11T02:50:20;4.20;99.90
3602;DHT22;1815;50.950;6.920;2022-12-11T02:52:49;4.20;99.90
3602;DHT22;1815;50.950;6.920;2022-12-11T02:55:16;4.20;99.90
3602;DHT22;1815;50.950;6.920;2022-12-11T02:57:50;4.20;99.90
3602;DHT22;1815;50.950;6.920;2022-12-11T03:00:17;4.30;99.90
3602;DHT22;1815;50.950;6.920;2022-12-11T03:02:44;4.30;99.90
3602;DHT22;1815;50.950;6.920;2022-12-11T03:05:11;4.30;99.90
3602;DHT22;1815;50.950;6.920;2022-12-11T03:07:39;4.30;99.90
3602;DHT22;1815;50.950;6.920;2022-12-11T03:10:08;4.30;99.90
3602;DHT22;1815;50.950;6.920;2022-12-11T03:12:38;4.30;99.90
3602;DHT22;1815;50.950;6.920;2022-12-11T03:15:07;4.40;99.90
3602;DHT22;1815;50.950;6.920;2022-12-11T03:20:45;4.40;99.90
3602;DHT22;1815;50.950;6.920;2022-12-11T03:23:31;4.40;99.90
3602;DHT22;1815;50.950;6.920;2022-12-11T03:26:02;4.40;99.90
3602;DHT22;1815;50.950;6.920;2022-12-11T03:31:08;4.40;99.90
3602;DHT22;1815;50.950;6.920;2022-12-11T03:33:40;4.40;99.90
3602;DHT22;1815;50.950;6.920;2022-12-11T03:36:15;4.40;99.90
3602;DHT22;1815;50.950;6.920;2022-12-11T03:38:52;4.40;99.90
3602;DHT22;1815;50.950;6.920;2022-12-11T03:41:21;4.40;99.90
3602;DHT22;1815;50.950;6.920;2022-12-11T03:43:50;4.40;99.90
3602;DHT22;1815;50.950;6.920;2022-12-11T03:46:17;4.40;99.90
3602;DHT22;1815;50.950;6.920;2022-12-11T03:48:47;4.40;99.90
3602;DHT22;1815;50.950;6.920;2022-12-11T03:51:14;4.40;99.90
3602;DHT22;1815;50.950;6.920;2022-12-11T03:53:41;4.40;99.90
3602;DHT22;1815;50.950;6.920;2022-12-11T03:56:09;4.40;99.90
3602;DHT22;1815;50.950;6.920;2022-12-11T03:58:36;4.40;99.90
3602;DHT22;1815;50.950;6.920;2022-12-11T04:01:02;4.40;99.90
3602;DHT22;1815;50.950;6.920;2022-12-11T04:03:27;4.40;99.90
3602;DHT22;1815;50.950;6.920;2022-12-11T04:05:54;4.40;99.90
3602;DHT22;1815;50.950;6.920;2022-12-11T04:08:21;4.40;99.90
3602;DHT22;1815;50.950;6.920;2022-12-11T04:10:48;4.40;99.90
3602;DHT22;1815;50.950;6.920;2022-12-11T04:13:34;4.40;99.90
3602;DHT22;1815;50.950;6.920;2022-12-11T04:16:00;4.40;99.90
3602;DHT22;1815;50.950;6.920;2022-12-11T04:18:26;4.40;99.90
3602;DHT22;1815;50.950;6.920;2022-12-11T04:21:11;4.40;99.90
3602;DHT22;1815;50.950;6.920;2022-12-11T04:23:55;4.40;99.90
3602;DHT22;1815;50.950;6.920;2022-12-11T04:26:40;4.50;99.90
3602;DHT22;1815;50.950;6.920;2022-12-11T04:29:06;4.50;99.90
3602;DHT22;1815;50.950;6.920;2022-12-11T04:31:32;4.50;99.90
3602;DHT22;1815;50.950;6.920;2022-12-11T04:33:57;4.50;99.90
3602;DHT22;1815;50.950;6.920;2022-12-11T04:36:26;4.50;99.90
3602;DHT22;1815;50.950;6.920;2022-12-11T04:38:52;4.50;99.90
3602;DHT22;1815;50.950;6.920;2022-12-11T04:41:17;4.50;99.90
3602;DHT22;1815;50.950;6.920;2022-12-11T04:43:43;4.50;99.90
3602;DHT22;1815;50.950;6.920;2022-12-11T04:46:14;4.50;99.90
3602;DHT22;1815;50.950;6.920;2022-12-11T04:48:40;4.50;99.90
3602;DHT22;1815;50.950;6.920;2022-12-11T04:51:07;4.50;99.90
3602;DHT22;1815;50.950;6.920;2022-12-11T04:53:34;4.50;99.90
3602;DHT22;1815;50.950;6.920;2022-12-11T04:56:00;4.50;99.90
3602;DHT22;1815;50.950;6.920;2022-12-11T04:58:26;4.60;99.90
3602;DHT22;1815;50.950;6.920;2022-12-11T05:00:52;4.60;99.90
3602;DHT22;1815;50.950;6.920;2022-12-11T05:03:18;4.60;99.90
3602;DHT22;1815;50.950;6.920;2022-12-11T05:05:49;4.60;99.90
3602;DHT22;1815;50.950;6.920;2022-12-11T05:08:16;4.60;99.90
3602;DHT22;1815;50.950;6.920;2022-12-11T05:10:42;4.60;99.90
3602;DHT22;1815;50.950;6.920;2022-12-11T05:13:08;4.60;99.90
3602;DHT22;1815;50.950;6.920;2022-12-11T05:15:33;4.60;99.90
3602;DHT22;1815;50.950;6.920;2022-12-11T05:17:59;4.60;99.90
3602;DHT22;1815;50.950;6.920;2022-12-11T05:20:24;4.60;99.90
3602;DHT22;1815;50.950;6.920;2022-12-11T05:22:50;4.60;99.90
3602;DHT22;1815;50.950;6.920;2022-12-11T05:25:16;4.60;99.90
3602;DHT22;1815;50.950;6.920;2022-12-11T05:27:42;4.60;99.90
3602;DHT22;1815;50.950;6.920;2022-12-11T05:30:08;4.60;99.90
3602;DHT22;1815;50.950;6.920;2022-12-11T05:32:34;4.60;99.90
3602;DHT22;1815;50.950;6.920;2022-12-11T05:35:00;4.60;99.90
3602;DHT22;1815;50.950;6.920;2022-12-11T05:37:26;4.50;99.90
3602;DHT22;1815;50.950;6.920;2022-12-11T05:39:52;4.50;99.90
3602;DHT22;1815;50.950;6.920;2022-12-11T05:42:18;4.50;99.90
3602;DHT22;1815;50.950;6.920;2022-12-11T05:44:43;4.50;99.90
3602;DHT22;1815;50.950;6.920;2022-12-11T05:47:09;4.50;99.90
3602;DHT22;1815;50.950;6.920;2022-12-11T05:49:35;4.40;99.90
3602;DHT22;1815;50.950;6.920;2022-12-11T05:52:01;4.40;99.90
3602;DHT22;1815;50.950;6.920;2022-12-11T05:54:26;4.40;99.90
3602;DHT22;1815;50.950;6.920;2022-12-11T05:56:52;4.40;99.90
3602;DHT22;1815;50.950;6.920;2022-12-11T05:59:18;4.40;99.90
3602;DHT22;1815;50.950;6.920;2022-12-11T06:01:44;4.40;99.90
3602;DHT22;1815;50.950;6.920;2022-12-11T06:04:11;4.40;99.90
3602;DHT22;1815;50.950;6.920;2022-12-11T06:06:37;4.40;99.90
3602;DHT22;1815;50.950;6.920;2022-12-11T06:09:03;4.40;99.90
3602;DHT22;1815;50.950;6.920;2022-12-11T06:11:31;4.40;99.90
3602;DHT22;1815;50.950;6.920;2022-12-11T06:13:57;4.40;99.90
3602;DHT22;1815;50.950;6.920;2022-12-11T06:16:23;4.40;99.90
3602;DHT22;1815;50.950;6.920;2022-12-11T06:18:49;4.40;99.90
3602;DHT22;1815;50.950;6.920;2022-12-11T06:21:19;4.40;99.90
3602;DHT22;1815;50.950;6.920;2022-12-11T06:23:46;4.40;99.90
3602;DHT22;1815;50.950;6.920;2022-12-11T06:26:13;4.40;99.90
3602;DHT22;1815;50.950;6.920;2022-12-11T06:28:39;4.40;99.90
3602;DHT22;1815;50.950;6.920;2022-12-11T06:31:05;4.30;99.90
3602;DHT22;1815;50.950;6.920;2022-12-11T06:33:32;4.30;99.90
3602;DHT22;1815;50.950;6.920;2022-12-11T06:36:09;4.30;99.90
3602;DHT22;1815;50.950;6.920;2022-12-11T06:38:36;4.20;99.90
3602;DHT22;1815;50.950;6.920;2022-12-11T06:41:03;4.20;99.90
3602;DHT22;1815;50.950;6.920;2022-12-11T06:43:32;4.20;99.90
3602;DHT22;1815;50.950;6.920;2022-12-11T06:46:01;4.20;99.90
3602;DHT22;1815;50.950;6.920;2022-12-11T06:48:27;4.20;99.90
3602;DHT22;1815;50.950;6.920;2022-12-11T06:50:53;4.20;99.90
3602;DHT22;1815;50.950;6.920;2022-12-11T06:53:19;4.20;99.90
3602;DHT22;1815;50.950;6.920;2022-12-11T06:55:44;4.20;99.90
3602;DHT22;1815;50.950;6.920;2022-12-11T06:58:10;4.20;99.90
3602;DHT22;1815;50.950;6.920;2022-12-11T07:00:37;4.30;99.90
3602;DHT22;1815;50.950;6.920;2022-12-11T07:03:03;4.30;99.90
3602;DHT22;1815;50.950;6.920;2022-12-11T07:05:30;4.30;99.90
3602;DHT22;1815;50.950;6.920;2022-12-11T07:07:56;4.30;99.90
3602;DHT22;1815;50.950;6.920;2022-12-11T07:10:23;4.20;99.90
3602;DHT22;1815;50.950;6.920;2022-12-11T07:12:51;4.20;99.90
3602;DHT22;1815;50.950;6.920;2022-12-11T07:15:17;4.20;99.90
3602;DHT22;1815;50.950;6.920;2022-12-11T07:17:43;4.20;99.90
3602;DHT22;1815;50.950;6.920;2022-12-11T07:20:09;4.20;99.90
3602;DHT22;1815;50.950;6.920;2022-12-11T07:22:35;4.20;99.90
3602;DHT22;1815;50.950;6.920;2022-12-11T07:25:01;4.20;99.90
3602;DHT22;1815;50.950;6.920;2022-12-11T07:27:26;4.20;99.90
3602;DHT22;1815;50.950;6.920;2022-12-11T07:29:53;4.20;99.90
3602;DHT22;1815;50.950;6.920;2022-12-11T07:32:20;4.20;99.90
3602;DHT22;1815;50.950;6.920;2022-12-11T07:34:47;4.20;99.90
3602;DHT22;1815;50.950;6.920;2022-12-11T07:37:13;4.30;99.90
3602;DHT22;1815;50.950;6.920;2022-12-11T07:39:38;4.30;99.90
3602;DHT22;1815;50.950;6.920;2022-12-11T07:42:04;4.30;99.90
3602;DHT22;1815;50.950;6.920;2022-12-11T07:44:30;4.30;99.90
3602;DHT22;1815;50.950;6.920;2022-12-11T07:46:56;4.30;99.90
3602;DHT22;1815;50.950;6.920;2022-12-11T07:49:22;4.30;99.90
3602;DHT22;1815;50.950;6.920;2022-12-11T07:51:47;4.30;99.90
3602;DHT22;1815;50.950;6.920;2022-12-11T07:54:14;4.30;99.90
3602;DHT22;1815;50.950;6.920;2022-12-11T07:56:42;4.30;99.90
3602;DHT22;1815;50.950;6.920;2022-12-11T07:59:08;4.30;99.90
3602;DHT22;1815;50.950;6.920;2022-12-11T08:01:35;4.40;99.90
3602;DHT22;1815;50.950;6.920;2022-12-11T08:04:05;4.40;99.90
3602;DHT22;1815;50.950;6.920;2022-12-11T08:06:33;4.30;99.90
3602;DHT22;1815;50.950;6.920;2022-12-11T08:09:00;4.40;99.90
3602;DHT22;1815;50.950;6.920;2022-12-11T08:11:28;4.40;99.90
3602;DHT22;1815;50.950;6.920;2022-12-11T08:13:54;4.40;99.90
3602;DHT22;1815;50.950;6.920;2022-12-11T08:16:21;4.40;99.90
3602;DHT22;1815;50.950;6.920;2022-12-11T08:18:47;4.40;99.90
3602;DHT22;1815;50.950;6.920;2022-12-11T08:21:16;4.50;99.90
3602;DHT22;1815;50.950;6.920;2022-12-11T08:23:42;4.50;99.90
3602;DHT22;1815;50.950;6.920;2022-12-11T08:26:12;4.50;99.90
3602;DHT22;1815;50.950;6.920;2022-12-11T08:28:38;4.50;99.90
3602;DHT22;1815;50.950;6.920;2022-12-11T08:31:05;4.60;99.90
3602;DHT22;1815;50.950;6.920;2022-12-11T08:33:32;4.60;99.90
3602;DHT22;1815;50.950;6.920;2022-12-11T08:36:02;4.60;99.90
3602;DHT22;1815;50.950;6.920;2022-12-11T08:38:28;4.60;99.90
3602;DHT22;1815;50.950;6.920;2022-12-11T08:40:54;4.60;99.90
3602;DHT22;1815;50.950;6.920;2022-12-11T08:43:19;4.60;99.90
3602;DHT22;1815;50.950;6.920;2022-12-11T08:45:45;4.60;99.90
3602;DHT22;1815;50.950;6.920;2022-12-11T08:48:11;4.60;99.90
3602;DHT22;1815;50.950;6.920;2022-12-11T08:50:37;4.60;99.90
3602;DHT22;1815;50.950;6.920;2022-12-11T08:53:02;4.60;99.90
3602;DHT22;1815;50.950;6.920;2022-12-11T08:55:28;4.70;99.90
3602;DHT22;1815;50.950;6.920;2022-12-11T08:57:54;4.70;99.90
3602;DHT22;1815;50.950;6.920;2022-12-11T09:00:20;4.70;99.90
3602;DHT22;1815;50.950;6.920;2022-12-11T09:02:46;4.70;99.90
3602;DHT22;1815;50.950;6.920;2022-12-11T09:05:12;4.70;99.90
3602;DHT22;1815;50.950;6.920;2022-12-11T09:07:38;4.70;99.90
3602;DHT22;1815;50.950;6.920;2022-12-11T09:10:05;4.70;99.90
3602;DHT22;1815;50.950;6.920;2022-12-11T09:12:32;4.80;99.90
3602;DHT22;1815;50.950;6.920;2022-12-11T09:14:58;4.80;99.90
3602;DHT22;1815;50.950;6.920;2022-12-11T09:17:26;4.80;99.90
3602;DHT22;1815;50.950;6.920;2022-12-11T09:19:52;4.80;99.90
3602;DHT22;1815;50.950;6.920;2022-12-11T09:22:18;4.80;99.90
3602;DHT22;1815;50.950;6.920;2022-12-11T09:24:43;4.90;99.90
3602;DHT22;1815;50.950;6.920;2022-12-11T09:27:10;4.90;99.90
3602;DHT22;1815;50.950;6.920;2022-12-11T09:29:37;4.90;99.90
3602;DHT22;1815;50.950;6.920;2022-12-11T09:32:03;4.90;99.90
3602;DHT22;1815;50.950;6.920;2022-12-11T09:34:28;4.90;99.90
3602;DHT22;1815;50.950;6.920;2022-12-11T09:36:54;4.90;99.90
3602;DHT22;1815;50.950;6.920;2022-12-11T09:39:20;4.90;99.90
3602;DHT22;1815;50.950;6.920;2022-12-11T09:44:50;4.90;99.90
3602;DHT22;1815;50.950;6.920;2022-12-11T09:49:48;4.90;99.90
3602;DHT22;1815;50.950;6.920;2022-12-11T09:52:22;4.90;99.90
3602;DHT22;1815;50.950;6.920;2022-12-11T09:54:51;5.00;99.90
3602;DHT22;1815;50.950;6.920;2022-12-11T10:08:12;5.10;99.90
3602;DHT22;1815;50.950;6.920;2022-12-11T10:13:26;5.10;99.90
3602;DHT22;1815;50.950;6.920;2022-12-11T10:15:59;5.10;99.90
3602;DHT22;1815;50.950;6.920;2022-12-11T10:18:28;5.10;99.90
3602;DHT22;1815;50.950;6.920;2022-12-11T10:20:56;5.10;99.90
3602;DHT22;1815;50.950;6.920;2022-12-11T10:23:33;5.20;99.90
3602;DHT22;1815;50.950;6.920;2022-12-11T10:26:17;5.20;99.90
3602;DHT22;1815;50.950;6.920;2022-12-11T10:32:47;5.20;99.90
3602;DHT22;1815;50.950;6.920;2022-12-11T10:36:04;5.30;99.90
3602;DHT22;1815;50.950;6.920;2022-12-11T10:38:38;5.30;99.90
3602;DHT22;1815;50.950;6.920;2022-12-11T10:43:40;5.30;99.90
3602;DHT22;1815;50.950;6.920;2022-12-11T10:46:15;5.40;99.90
3602;DHT22;1815;50.950;6.920;2022-12-11T10:48:59;5.40;99.90
3602;DHT22;1815;50.950;6.920;2022-12-11T10:51:33;5.40;99.90
3602;DHT22;1815;50.950;6.920;2022-12-11T10:54:06;5.40;99.90
3602;DHT22;1815;50.950;6.920;2022-12-11T10:56:34;5.40;99.90
3602;DHT22;1815;50.950;6.920;2022-12-11T10:59:01;5.40;99.90
3602;DHT22;1815;50.950;6.920;2022-12-11T11:01:30;5.30;99.90
3602;DHT22;1815;50.950;6.920;2022-12-11T11:04:01;5.20;99.90
3602;DHT22;1815;50.950;6.920;2022-12-11T11:06:28;5.10;99.90
3602;DHT22;1815;50.950;6.920;2022-12-11T11:08:56;5.10;99.90
3602;DHT22;1815;50.950;6.920;2022-12-11T11:11:29;5.10;99.90
3602;DHT22;1815;50.950;6.920;2022-12-11T11:16:36;5.00;99.90
3602;DHT22;1815;50.950;6.920;2022-12-11T11:19:02;5.00;99.90
3602;DHT22;1815;50.950;6.920;2022-12-11T11:21:28;5.10;99.90
3602;DHT22;1815;50.950;6.920;2022-12-11T11:23:56;5.10;99.90
3602;DHT22;1815;50.950;6.920;2022-12-11T11:26:22;5.10;99.90
3602;DHT22;1815;50.950;6.920;2022-12-11T11:28:56;5.20;99.90
3602;DHT22;1815;50.950;6.920;2022-12-11T11:31:31;5.20;99.90
3602;DHT22;1815;50.950;6.920;2022-12-11T11:34:04;5.30;99.90
3602;DHT22;1815;50.950;6.920;2022-12-11T11:36:32;5.30;99.90
3602;DHT22;1815;50.950;6.920;2022-12-11T11:41:51;5.20;99.90
3602;DHT22;1815;50.950;6.920;2022-12-11T11:44:32;5.10;99.90
3602;DHT22;1815;50.950;6.920;2022-12-11T11:47:08;5.10;99.90
3602;DHT22;1815;50.950;6.920;2022-12-11T11:49:49;5.10;99.90
3602;DHT22;1815;50.950;6.920;2022-12-11T11:52:23;5.10;99.90
3602;DHT22;1815;50.950;6.920;2022-12-11T11:57:36;5.10;99.90
3602;DHT22;1815;50.950;6.920;2022-12-11T12:00:24;5.10;99.90
3602;DHT22;1815;50.950;6.920;2022-12-11T12:02:57;5.10;99.90
3602;DHT22;1815;50.950;6.920;2022-12-11T12:11:25;5.10;99.90
3602;DHT22;1815;50.950;6.920;2022-12-11T12:14:02;5.10;99.90
3602;DHT22;1815;50.950;6.920;2022-12-11T12:27:49;5.20;99.90
3602;DHT22;1815;50.950;6.920;2022-12-11T12:30:18;5.30;99.90
3602;DHT22;1815;50.950;6.920;2022-12-11T12:35:35;5.20;99.90
3602;DHT22;1815;50.950;6.920;2022-12-11T12:38:06;5.20;99.90
3602;DHT22;1815;50.950;6.920;2022-12-11T12:41:08;5.20;99.90
3602;DHT22;1815;50.950;6.920;2022-12-11T12:46:13;5.30;99.90
3602;DHT22;1815;50.950;6.920;2022-12-11T12:48:44;5.30;99.90
3602;DHT22;1815;50.950;6.920;2022-12-11T12:51:13;5.40;99.90
3602;DHT22;1815;50.950;6.920;2022-12-11T12:53:43;5.40;99.90
3602;DHT22;1815;50.950;6.920;2022-12-11T12:56:11;5.50;99.90
3602;DHT22;1815;50.950;6.920;2022-12-11T12:58:43;5.50;99.90
3602;DHT22;1815;50.950;6.920;2022-12-11T13:01:16;5.60;99.90
3602;DHT22;1815;50.950;6.920;2022-12-11T13:06:15;5.60;99.90
3602;DHT22;1815;50.950;6.920;2022-12-11T13:08:52;5.60;99.90
3602;DHT22;1815;50.950;6.920;2022-12-11T13:11:20;5.70;99.90
3602;DHT22;1815;50.950;6.920;2022-12-11T13:16:42;5.70;99.90
3602;DHT22;1815;50.950;6.920;2022-12-11T13:24:30;5.60;99.90
3602;DHT22;1815;50.950;6.920;2022-12-11T13:27:08;5.60;99.90
3602;DHT22;1815;50.950;6.920;2022-12-11T13:29:39;5.50;99.90
3602;DHT22;1815;50.950;6.920;2022-12-11T13:34:37;5.40;99.90
3602;DHT22;1815;50.950;6.920;2022-12-11T13:37:04;5.30;99.90
3602;DHT22;1815;50.950;6.920;2022-12-11T13:39:34;5.30;99.90
3602;DHT22;1815;50.950;6.920;2022-12-11T13:42:06;5.30;99.90
3602;DHT22;1815;50.950;6.920;2022-12-11T13:44:41;5.30;99.90
3602;DHT22;1815;50.950;6.920;2022-12-11T13:47:12;5.20;99.90
3602;DHT22;1815;50.950;6.920;2022-12-11T13:49:41;5.20;99.90
3602;DHT22;1815;50.950;6.920;2022-12-11T13:52:17;5.20;99.90
3602;DHT22;1815;50.950;6.920;2022-12-11T13:54:51;5.20;99.90
3602;DHT22;1815;50.950;6.920;2022-12-11T13:57:20;5.10;99.90
3602;DHT22;1815;50.950;6.920;2022-12-11T13:59:49;5.20;99.90
3602;DHT22;1815;50.950;6.920;2022-12-11T14:02:34;5.20;99.90
3602;DHT22;1815;50.950;6.920;2022-12-11T14:05:05;5.20;99.90
3602;DHT22;1815;50.950;6.920;2022-12-11T14:07:46;5.20;99.90
3602;DHT22;1815;50.950;6.920;2022-12-11T14:10:28;5.30;99.90
3602;DHT22;1815;50.950;6.920;2022-12-11T14:13:16;5.30;99.90
3602;DHT22;1815;50.950;6.920;2022-12-11T14:15:44;5.30;99.90
3602;DHT22;1815;50.950;6.920;2022-12-11T14:18:17;5.30;99.90
3602;DHT22;1815;50.950;6.920;2022-12-11T14:20:44;5.30;99.90
3602;DHT22;1815;50.950;6.920;2022-12-11T14:23:18;5.20;99.90
3602;DHT22;1815;50.950;6.920;2022-12-11T14:26:17;5.20;99.90
3602;DHT22;1815;50.950;6.920;2022-12-11T14:28:44;5.10;99.90
3602;DHT22;1815;50.950;6.920;2022-12-11T14:31:14;5.00;99.90
3602;DHT22;1815;50.950;6.920;2022-12-11T14:33:44;5.00;99.90
3602;DHT22;1815;50.950;6.920;2022-12-11T14:36:13;5.00;99.90
3602;DHT22;1815;50.950;6.920;2022-12-11T14:38:46;5.10;99.90
3602;DHT22;1815;50.950;6.920;2022-12-11T14:41:21;5.10;99.90
3602;DHT22;1815;50.950;6.920;2022-12-11T14:43:51;5.10;99.90
3602;DHT22;1815;50.950;6.920;2022-12-11T14:46:29;5.10;99.90
3602;DHT22;1815;50.950;6.920;2022-12-11T14:51:41;5.10;99.90
3602;DHT22;1815;50.950;6.920;2022-12-11T14:54:17;5.00;99.90
3602;DHT22;1815;50.950;6.920;2022-12-11T14:56:45;5.00;99.90
3602;DHT22;1815;50.950;6.920;2022-12-11T14:59:18;5.00;99.90
3602;DHT22;1815;50.950;6.920;2022-12-11T15:01:57;5.00;99.90
3602;DHT22;1815;50.950;6.920;2022-12-11T15:04:28;4.90;99.90
3602;DHT22;1815;50.950;6.920;2022-12-11T15:06:54;4.90;99.90
3602;DHT22;1815;50.950;6.920;2022-12-11T15:11:55;5.00;99.90
3602;DHT22;1815;50.950;6.920;2022-12-11T15:14:24;5.00;99.90
3602;DHT22;1815;50.950;6.920;2022-12-11T15:16:51;5.10;99.90
3602;DHT22;1815;50.950;6.920;2022-12-11T15:19:25;5.10;99.90
3602;DHT22;1815;50.950;6.920;2022-12-11T15:21:52;5.10;99.90
3602;DHT22;1815;50.950;6.920;2022-12-11T15:24:26;5.10;99.90
3602;DHT22;1815;50.950;6.920;2022-12-11T15:26:56;5.20;99.90
3602;DHT22;1815;50.950;6.920;2022-12-11T15:34:46;5.00;99.90
3602;DHT22;1815;50.950;6.920;2022-12-11T15:37:31;5.00;99.90
3602;DHT22;1815;50.950;6.920;2022-12-11T15:40:00;4.90;99.90
3602;DHT22;1815;50.950;6.920;2022-12-11T15:42:29;4.90;99.90
3602;DHT22;1815;50.950;6.920;2022-12-11T15:44:55;4.90;99.90
3602;DHT22;1815;50.950;6.920;2022-12-11T15:47:24;4.80;99.90
3602;DHT22;1815;50.950;6.920;2022-12-11T15:49:53;4.80;99.90
3602;DHT22;1815;50.950;6.920;2022-12-11T15:52:22;4.80;99.90
3602;DHT22;1815;50.950;6.920;2022-12-11T15:54:47;4.80;99.90
3602;DHT22;1815;50.950;6.920;2022-12-11T15:57:15;4.70;99.90
3602;DHT22;1815;50.950;6.920;2022-12-11T15:59:42;4.70;99.90
3602;DHT22;1815;50.950;6.920;2022-12-11T16:02:12;4.70;99.90
3602;DHT22;1815;50.950;6.920;2022-12-11T16:04:38;4.70;99.90
3602;DHT22;1815;50.950;6.920;2022-12-11T16:07:05;4.70;99.90
3602;DHT22;1815;50.950;6.920;2022-12-11T16:09:37;4.60;99.90
3602;DHT22;1815;50.950;6.920;2022-12-11T16:12:03;4.60;99.90
3602;DHT22;1815;50.950;6.920;2022-12-11T16:14:29;4.60;99.90
3602;DHT22;1815;50.950;6.920;2022-12-11T16:16:55;4.60;99.90
3602;DHT22;1815;50.950;6.920;2022-12-11T16:19:20;4.60;99.90
3602;DHT22;1815;50.950;6.920;2022-12-11T16:21:46;4.60;99.90
3602;DHT22;1815;50.950;6.920;2022-12-11T16:24:12;4.60;99.90
3602;DHT22;1815;50.950;6.920;2022-12-11T16:26:38;4.60;99.90
3602;DHT22;1815;50.950;6.920;2022-12-11T16:29:04;4.60;99.90
3602;DHT22;1815;50.950;6.920;2022-12-11T16:31:30;4.60;99.90
3602;DHT22;1815;50.950;6.920;2022-12-11T16:33:55;4.60;99.90
3602;DHT22;1815;50.950;6.920;2022-12-11T16:36:22;4.60;99.90
3602;DHT22;1815;50.950;6.920;2022-12-11T16:38:48;4.70;99.90
3602;DHT22;1815;50.950;6.920;2022-12-11T16:41:14;4.70;99.90
3602;DHT22;1815;50.950;6.920;2022-12-11T16:43:40;4.70;99.90
3602;DHT22;1815;50.950;6.920;2022-12-11T16:46:06;4.80;99.90
3602;DHT22;1815;50.950;6.920;2022-12-11T16:48:31;4.80;99.90
3602;DHT22;1815;50.950;6.920;2022-12-11T16:50:57;4.80;99.90
3602;DHT22;1815;50.950;6.920;2022-12-11T16:53:23;4.80;99.90
3602;DHT22;1815;50.950;6.920;2022-12-11T16:55:49;4.70;99.90
3602;DHT22;1815;50.950;6.920;2022-12-11T16:58:16;4.70;99.90
3602;DHT22;1815;50.950;6.920;2022-12-11T17:00:48;4.70;99.90
3602;DHT22;1815;50.950;6.920;2022-12-11T17:03:14;4.70;99.90
3602;DHT22;1815;50.950;6.920;2022-12-11T17:05:42;4.60;99.90
3602;DHT22;1815;50.950;6.920;2022-12-11T17:08:08;4.60;99.90
3602;DHT22;1815;50.950;6.920;2022-12-11T17:10:39;4.50;99.90
3602;DHT22;1815;50.950;6.920;2022-12-11T17:13:05;4.50;99.90
3602;DHT22;1815;50.950;6.920;2022-12-11T17:15:31;4.50;99.90
3602;DHT22;1815;50.950;6.920;2022-12-11T17:17:57;4.50;99.90
3602;DHT22;1815;50.950;6.920;2022-12-11T17:20:22;4.40;99.90
3602;DHT22;1815;50.950;6.920;2022-12-11T17:22:48;4.40;99.90
3602;DHT22;1815;50.950;6.920;2022-12-11T17:25:14;4.40;99.90
3602;DHT22;1815;50.950;6.920;2022-12-11T17:27:44;4.40;99.90
3602;DHT22;1815;50.950;6.920;2022-12-11T17:30:10;4.40;99.90
3602;DHT22;1815;50.950;6.920;2022-12-11T17:32:36;4.40;99.90
3602;DHT22;1815;50.950;6.920;2022-12-11T17:35:02;4.40;99.90
3602;DHT22;1815;50.950;6.920;2022-12-11T17:37:28;4.40;99.90
3602;DHT22;1815;50.950;6.920;2022-12-11T17:39:55;4.40;99.90
3602;DHT22;1815;50.950;6.920;2022-12-11T17:42:21;4.40;99.90
3602;DHT22;1815;50.950;6.920;2022-12-11T17:44:46;4.50;99.90
3602;DHT22;1815;50.950;6.920;2022-12-11T17:47:12;4.50;99.90
3602;DHT22;1815;50.950;6.920;2022-12-11T17:49:38;4.50;99.90
3602;DHT22;1815;50.950;6.920;2022-12-11T17:52:05;4.50;99.90
3602;DHT22;1815;50.950;6.920;2022-12-11T17:54:30;4.60;99.90
3602;DHT22;1815;50.950;6.920;2022-12-11T17:56:56;4.60;99.90
3602;DHT22;1815;50.950;6.920;2022-12-11T17:59:23;4.60;99.90
3602;DHT22;1815;50.950;6.920;2022-12-11T18:01:49;4.70;99.90
3602;DHT22;1815;50.950;6.920;2022-12-11T18:04:14;4.60;99.90
3602;DHT22;1815;50.950;6.920;2022-12-11T18:06:40;4.70;99.90